Time;durP1;ratioP1;P1;durP2;ratioP2;P2;SDS_P1;SDS_P2;PMS_P1;PMS_P2;Temp;Humidity;BMP_temperature;BMP_pressure;BME280_temperature;BME280_humidity;BME280_pressure;Samples;Min_cycle;Max_cycle;Signal;HPM_P1;HPM_P2
2023/04/08 00:01:15;;;;;;;;;;;8.70;99.90;;;;;;5022051;28;19909;-80
2023/04/08 00:03:41;;;;;;;;;;;7.70;99.90;;;;;;5021753;28;19952;-79
2023/04/08 00:06:07;;;;;;;;;;;7.70;99.90;;;;;;5021533;28;19909;-80
2023/04/08 00:08:32;;;;;;;;;;;7.70;99.90;;;;;;5020802;28;20365;-78
2023/04/08 00:10:58;;;;;;;;;;;7.80;99.90;;;;;;5019254;28;19909;-79
2023/04/08 00:13:23;;;;;;;;;;;7.80;99.90;;;;;;5037049;28;19917;-79
2023/04/08 00:15:49;;;;;;;;;;;7.80;99.90;;;;;;5020434;28;19910;-79
2023/04/08 00:18:15;;;;;;;;;;;7.90;99.90;;;;;;5037065;28;19909;-79
2023/04/08 00:20:41;;;;;;;;;;;8.40;99.90;;;;;;5020792;28;19909;-80
2023/04/08 00:23:07;;;;;;;;;;;7.70;99.90;;;;;;5020010;28;19968;-79
2023/04/08 00:25:32;;;;;;;;;;;7.70;99.90;;;;;;5037085;28;19909;-79
2023/04/08 00:27:58;;;;;;;;;;;8.00;99.90;;;;;;5019068;28;20394;-79
2023/04/08 00:30:24;;;;;;;;;;;7.60;99.90;;;;;;5019591;28;19909;-80
2023/04/08 00:32:49;;;;;;;;;;;7.60;99.90;;;;;;5036789;28;20395;-79
2023/04/08 00:35:15;;;;;;;;;;;7.60;99.90;;;;;;5018920;28;19909;-80
2023/04/08 00:37:40;;;;;;;;;;;7.60;99.90;;;;;;5019006;28;19949;-79
2023/04/08 00:40:06;;;;;;;;;;;7.60;99.90;;;;;;5019076;28;19909;-79
2023/04/08 00:42:31;;;;;;;;;;;7.60;99.90;;;;;;5018703;28;20372;-80
2023/04/08 00:44:57;;;;;;;;;;;7.60;99.90;;;;;;5036306;28;20292;-79
2023/04/08 00:47:22;;;;;;;;;;;9.40;99.90;;;;;;5018488;28;19909;-80
2023/04/08 00:49:48;;;;;;;;;;;7.60;99.90;;;;;;5018397;28;20055;-79
2023/04/08 00:52:13;;;;;;;;;;;7.60;99.90;;;;;;5018389;28;19909;-80
2023/04/08 00:54:40;;;;;;;;;;;7.70;99.90;;;;;;5021179;28;20009;-80
2023/04/08 00:57:06;;;;;;;;;;;7.70;99.90;;;;;;5038292;28;20000;-81
2023/04/08 00:59:32;;;;;;;;;;;7.60;99.90;;;;;;5020917;28;19921;-79
2023/04/08 01:01:57;;;;;;;;;;;7.60;99.90;;;;;;5020108;28;19910;-79
2023/04/08 01:04:23;;;;;;;;;;;7.60;99.90;;;;;;5021063;28;19910;-80
2023/04/08 01:06:52;;;;;;;;;;;7.60;99.90;;;;;;5038167;28;19909;-80
2023/04/08 01:09:20;;;;;;;;;;;7.80;99.90;;;;;;5020415;28;19913;-80
2023/04/08 01:11:47;;;;;;;;;;;7.70;99.90;;;;;;5020500;28;19996;-79
2023/04/08 01:14:16;;;;;;;;;;;7.50;99.90;;;;;;5020968;28;19956;-80
2023/04/08 01:16:42;;;;;;;;;;;7.50;99.90;;;;;;5020976;28;19913;-81
2023/04/08 01:19:09;;;;;;;;;;;7.50;99.90;;;;;;5020569;28;20261;-81
2023/04/08 01:21:36;;;;;;;;;;;9.40;99.90;;;;;;5021584;28;20336;-80
2023/04/08 01:24:08;;;;;;;;;;;7.50;99.90;;;;;;5020856;28;19967;-80
2023/04/08 01:26:34;;;;;;;;;;;7.50;99.90;;;;;;5020817;28;19916;-79
2023/04/08 01:29:00;;;;;;;;;;;7.50;99.90;;;;;;5020071;28;20372;-79
2023/04/08 01:31:26;;;;;;;;;;;7.90;99.90;;;;;;5038055;28;19951;-79
2023/04/08 01:33:52;;;;;;;;;;;7.40;99.90;;;;;;5019511;28;19913;-79
2023/04/08 01:36:19;;;;;;;;;;;7.40;99.90;;;;;;5037853;28;19909;-80
2023/04/08 01:38:45;;;;;;;;;;;7.40;99.90;;;;;;5020760;28;19947;-79
2023/04/08 01:41:11;;;;;;;;;;;7.40;99.90;;;;;;5019872;28;19976;-80
2023/04/08 01:43:38;;;;;;;;;;;7.40;99.90;;;;;;5020076;28;19948;-79
2023/04/08 01:46:04;;;;;;;;;;;9.10;99.90;;;;;;5019710;28;19909;-79
2023/04/08 01:48:30;;;;;;;;;;;7.40;99.90;;;;;;5018454;28;19920;-79
2023/04/08 01:50:56;;;;;;;;;;;8.90;99.90;;;;;;5018017;28;19915;-79
2023/04/08 01:53:21;;;;;;;;;;;7.30;99.90;;;;;;5018448;28;19920;-79
2023/04/08 01:55:50;;;;;;;;;;;7.30;99.90;;;;;;5019100;28;20377;-80
2023/04/08 01:58:18;;;;;;;;;;;7.30;99.90;;;;;;5036929;28;20438;-78
2023/04/08 02:00:45;;;;;;;;;;;7.30;99.90;;;;;;5017439;28;19917;-78
2023/04/08 02:03:11;;;;;;;;;;;7.30;99.90;;;;;;5017688;28;19909;-77
2023/04/08 02:05:36;;;;;;;;;;;7.90;99.90;;;;;;5034989;28;20411;-78
2023/04/08 02:08:02;;;;;;;;;;;7.30;99.90;;;;;;5034961;28;19964;-78
2023/04/08 02:10:27;;;;;;;;;;;7.30;99.90;;;;;;5034840;28;20335;-78
2023/04/08 02:12:53;;;;;;;;;;;7.20;99.90;;;;;;5034784;28;19917;-77
2023/04/08 02:15:19;;;;;;;;;;;7.20;99.90;;;;;;5034861;28;19909;-78
2023/04/08 02:17:46;;;;;;;;;;;7.20;99.90;;;;;;5017349;28;19913;-77
2023/04/08 02:20:19;;;;;;;;;;;7.10;99.90;;;;;;5017180;28;20416;-77
2023/04/08 02:22:52;;;;;;;;;;;7.10;99.90;;;;;;5034796;28;19916;-77
2023/04/08 02:25:20;;;;;;;;;;;7.10;99.90;;;;;;5017026;28;20004;-77
2023/04/08 02:27:48;;;;;;;;;;;7.10;99.90;;;;;;5034703;28;19913;-77
2023/04/08 02:30:14;;;;;;;;;;;7.10;99.90;;;;;;5016862;28;19916;-77
2023/04/08 02:32:40;;;;;;;;;;;8.00;99.90;;;;;;5016805;28;19910;-77
2023/04/08 02:35:06;;;;;;;;;;;7.10;99.90;;;;;;5034607;28;19909;-77
2023/04/08 02:37:32;;;;;;;;;;;7.10;99.90;;;;;;5016842;28;20403;-77
2023/04/08 02:39:58;;;;;;;;;;;7.90;99.90;;;;;;5034654;28;19909;-77
2023/04/08 02:42:23;;;;;;;;;;;7.10;99.90;;;;;;5018370;28;19963;-77
2023/04/08 02:44:49;;;;;;;;;;;7.10;99.90;;;;;;5035809;28;20323;-77
2023/04/08 02:47:15;;;;;;;;;;;7.10;99.90;;;;;;5018247;28;20265;-77
2023/04/08 02:49:41;;;;;;;;;;;7.00;99.90;;;;;;5018500;28;19992;-77
2023/04/08 02:52:06;;;;;;;;;;;7.00;99.90;;;;;;5035796;28;19975;-77
2023/04/08 02:54:32;;;;;;;;;;;7.00;99.90;;;;;;5018455;28;19920;-77
2023/04/08 02:56:57;;;;;;;;;;;7.00;99.90;;;;;;5018274;28;19909;-77
2023/04/08 02:59:22;;;;;;;;;;;7.00;99.90;;;;;;5019025;28;20007;-77
2023/04/08 03:01:48;;;;;;;;;;;7.00;99.90;;;;;;5018844;28;19913;-77
2023/04/08 03:04:13;;;;;;;;;;;7.00;99.90;;;;;;5035807;28;19916;-77
2023/04/08 03:06:39;;;;;;;;;;;7.00;99.90;;;;;;5018155;28;19909;-77
2023/04/08 03:09:04;;;;;;;;;;;7.00;99.90;;;;;;5018342;28;19913;-77
2023/04/08 03:11:30;;;;;;;;;;;6.90;99.90;;;;;;5035388;28;19909;-76
2023/04/08 03:13:56;;;;;;;;;;;6.90;99.90;;;;;;5016950;28;19917;-76
2023/04/08 03:16:21;;;;;;;;;;;6.90;99.90;;;;;;5035883;28;19936;-77
2023/04/08 03:18:48;;;;;;;;;;;6.90;99.90;;;;;;5036106;28;19955;-77
2023/04/08 03:21:13;;;;;;;;;;;6.80;99.90;;;;;;5035666;28;20003;-77
2023/04/08 03:23:39;;;;;;;;;;;6.80;99.90;;;;;;5035519;28;19948;-78
2023/04/08 03:26:04;;;;;;;;;;;6.80;99.90;;;;;;5038778;28;19909;-78
2023/04/08 03:28:30;;;;;;;;;;;6.80;99.90;;;;;;5020963;28;19913;-77
2023/04/08 03:30:55;;;;;;;;;;;6.80;99.90;;;;;;5020280;28;19917;-77
2023/04/08 03:33:21;;;;;;;;;;;6.80;99.90;;;;;;5020460;28;19913;-77
2023/04/08 03:35:46;;;;;;;;;;;6.90;99.90;;;;;;5038262;28;19909;-78
2023/04/08 03:38:12;;;;;;;;;;;6.90;99.90;;;;;;5020571;28;19959;-77
2023/04/08 03:40:37;;;;;;;;;;;6.90;99.90;;;;;;5020779;28;19920;-77
2023/04/08 03:43:04;;;;;;;;;;;6.90;99.90;;;;;;5038226;28;20285;-78
2023/04/08 03:45:30;;;;;;;;;;;6.90;99.90;;;;;;5020448;28;20390;-77
2023/04/08 03:47:55;;;;;;;;;;;6.90;99.90;;;;;;5020539;28;19917;-77
2023/04/08 03:50:21;;;;;;;;;;;6.90;99.90;;;;;;5020212;28;19909;-77
2023/04/08 03:52:46;;;;;;;;;;;6.90;99.90;;;;;;5038041;28;19916;-77
2023/04/08 03:55:12;;;;;;;;;;;6.90;99.90;;;;;;5020028;28;20391;-77
2023/04/08 03:57:37;;;;;;;;;;;8.30;99.90;;;;;;5019833;28;19913;-77
2023/04/08 04:00:03;;;;;;;;;;;6.90;99.90;;;;;;5019645;28;19916;-77
2023/04/08 04:02:28;;;;;;;;;;;6.80;99.90;;;;;;5020134;28;19955;-78
2023/04/08 04:04:54;;;;;;;;;;;6.80;99.90;;;;;;5019785;28;19909;-77
2023/04/08 04:07:20;;;;;;;;;;;6.90;99.90;;;;;;5019779;28;19916;-78
2023/04/08 04:09:45;;;;;;;;;;;6.80;99.90;;;;;;5019658;28;20007;-78
2023/04/08 04:12:11;;;;;;;;;;;6.80;99.90;;;;;;5019868;28;19913;-78
2023/04/08 04:14:36;;;;;;;;;;;6.80;99.90;;;;;;5038487;28;19967;-78
2023/04/08 04:17:01;;;;;;;;;;;6.90;99.90;;;;;;5020572;28;20007;-78
2023/04/08 04:19:30;;;;;;;;;;;6.90;99.90;;;;;;5037912;28;19909;-78
2023/04/08 04:21:56;;;;;;;;;;;6.90;99.90;;;;;;5020818;28;19956;-78
2023/04/08 04:24:21;;;;;;;;;;;6.90;99.90;;;;;;5020055;28;19913;-77
2023/04/08 04:26:47;;;;;;;;;;;7.00;99.90;;;;;;5038388;28;20360;-78
2023/04/08 04:29:12;;;;;;;;;;;7.00;99.90;;;;;;5037962;28;19921;-79
2023/04/08 04:31:38;;;;;;;;;;;7.00;99.90;;;;;;5019773;28;19956;-79
2023/04/08 04:34:03;;;;;;;;;;;8.50;99.90;;;;;;5020097;28;19991;-79
2023/04/08 04:36:30;;;;;;;;;;;7.10;99.90;;;;;;5020342;28;19910;-79
2023/04/08 04:38:55;;;;;;;;;;;6.90;99.90;;;;;;5020071;28;20330;-79
2023/04/08 04:41:21;;;;;;;;;;;8.20;99.90;;;;;;5037431;28;20057;-79
2023/04/08 04:43:46;;;;;;;;;;;7.10;99.90;;;;;;5019599;28;20369;-79
2023/04/08 04:46:12;;;;;;;;;;;7.20;99.90;;;;;;5037145;28;19913;-79
2023/04/08 04:48:37;;;;;;;;;;;7.20;99.90;;;;;;5037771;28;20369;-77
2023/04/08 04:51:03;;;;;;;;;;;7.20;99.90;;;;;;5021065;28;19955;-77
2023/04/08 04:53:31;;;;;;;;;;;7.20;99.90;;;;;;5038159;28;19958;-77
2023/04/08 04:55:57;;;;;;;;;;;7.20;99.90;;;;;;5038260;28;19909;-77
2023/04/08 04:58:22;;;;;;;;;;;8.10;99.90;;;;;;5019711;28;19956;-77
2023/04/08 05:00:48;;;;;;;;;;;7.20;99.90;;;;;;5036991;28;19916;-78
2023/04/08 05:03:13;;;;;;;;;;;7.20;99.90;;;;;;5019136;28;19909;-78
2023/04/08 05:05:39;;;;;;;;;;;7.20;99.90;;;;;;5037035;28;20360;-78
2023/04/08 05:08:06;;;;;;;;;;;7.20;99.90;;;;;;5038810;28;20004;-78
2023/04/08 05:10:31;;;;;;;;;;;7.20;99.90;;;;;;5038711;28;19913;-78
2023/04/08 05:12:57;;;;;;;;;;;7.20;99.90;;;;;;5019880;28;19940;-78
2023/04/08 05:15:22;;;;;;;;;;;7.20;99.90;;;;;;5019971;28;19916;-78
2023/04/08 05:17:48;;;;;;;;;;;7.20;99.90;;;;;;5019097;28;20016;-78
2023/04/08 05:20:13;;;;;;;;;;;7.20;99.90;;;;;;5036963;28;20427;-78
2023/04/08 05:22:39;;;;;;;;;;;7.20;99.90;;;;;;5036950;28;19910;-77
2023/04/08 05:25:05;;;;;;;;;;;7.20;99.90;;;;;;5019191;28;19931;-77
2023/04/08 05:27:30;;;;;;;;;;;7.20;99.90;;;;;;5018318;28;19909;-77
2023/04/08 05:29:56;;;;;;;;;;;7.20;99.90;;;;;;5018364;28;19909;-77
2023/04/08 05:32:21;;;;;;;;;;;7.10;99.90;;;;;;5019458;28;19960;-77
2023/04/08 05:34:47;;;;;;;;;;;7.10;99.90;;;;;;5037333;28;19909;-78
2023/04/08 05:37:12;;;;;;;;;;;7.00;99.90;;;;;;5019462;28;19931;-77
2023/04/08 05:39:38;;;;;;;;;;;7.00;99.90;;;;;;5019370;28;20012;-77
2023/04/08 05:42:03;;;;;;;;;;;7.00;99.90;;;;;;5019289;28;20364;-77
2023/04/08 05:44:29;;;;;;;;;;;6.90;99.90;;;;;;5019195;28;19909;-77
2023/04/08 05:46:56;;;;;;;;;;;6.90;99.90;;;;;;5018669;28;19916;-77
2023/04/08 05:49:22;;;;;;;;;;;6.80;99.90;;;;;;5036918;28;20414;-77
2023/04/08 05:51:47;;;;;;;;;;;6.80;99.90;;;;;;5036722;28;19909;-77
2023/04/08 05:54:12;;;;;;;;;;;6.70;99.90;;;;;;5018390;28;19916;-78
2023/04/08 05:56:38;;;;;;;;;;;6.70;99.90;;;;;;5018669;28;19948;-78
2023/04/08 05:59:03;;;;;;;;;;;6.70;99.90;;;;;;5018666;28;19916;-78
2023/04/08 06:01:29;;;;;;;;;;;6.60;99.90;;;;;;5035566;28;20404;-78
2023/04/08 06:03:55;;;;;;;;;;;6.50;99.90;;;;;;5035504;28;19913;-78
2023/04/08 06:06:21;;;;;;;;;;;6.40;99.90;;;;;;5017342;28;19909;-78
2023/04/08 06:08:47;;;;;;;;;;;6.30;99.90;;;;;;5035718;28;19920;-78
2023/04/08 06:11:12;;;;;;;;;;;6.20;99.90;;;;;;5017447;28;19920;-78
2023/04/08 06:13:38;;;;;;;;;;;6.20;99.90;;;;;;5017950;28;19917;-77
2023/04/08 06:16:10;;;;;;;;;;;6.10;99.90;;;;;;5034922;28;19909;-78
2023/04/08 06:18:35;;;;;;;;;;;6.10;99.90;;;;;;5017165;28;20316;-78
2023/04/08 06:21:01;;;;;;;;;;;6.10;99.90;;;;;;5017128;28;19920;-78
2023/04/08 06:23:27;;;;;;;;;;;6.10;99.90;;;;;;5018297;28;20419;-77
2023/04/08 06:25:52;;;;;;;;;;;6.00;99.90;;;;;;5018432;28;19992;-77
2023/04/08 06:28:18;;;;;;;;;;;6.10;99.90;;;;;;5019905;28;20003;-77
2023/04/08 06:30:44;;;;;;;;;;;6.10;99.90;;;;;;5019821;28;19909;-78
2023/04/08 06:33:09;;;;;;;;;;;6.00;99.90;;;;;;5038138;28;19909;-78
2023/04/08 06:35:36;;;;;;;;;;;7.40;99.90;;;;;;5036938;28;19944;-78
2023/04/08 06:38:02;;;;;;;;;;;6.20;99.90;;;;;;5018860;28;19913;-77
2023/04/08 06:40:28;;;;;;;;;;;6.30;99.90;;;;;;5019096;28;19917;-78
2023/04/08 06:42:53;;;;;;;;;;;6.40;99.90;;;;;;5019064;28;20000;-78
2023/04/08 06:45:19;;;;;;;;;;;6.50;99.90;;;;;;5036978;28;19917;-77
2023/04/08 06:47:44;;;;;;;;;;;6.50;99.90;;;;;;5018508;28;19915;-77
2023/04/08 06:50:10;;;;;;;;;;;6.60;99.90;;;;;;5017431;28;19909;-78
2023/04/08 06:52:35;;;;;;;;;;;6.50;99.90;;;;;;5016438;28;19916;-78
2023/04/08 06:55:01;;;;;;;;;;;6.50;99.90;;;;;;5034063;28;19921;-78
2023/04/08 06:57:26;;;;;;;;;;;6.50;99.90;;;;;;5017891;28;19932;-79
2023/04/08 06:59:52;;;;;;;;;;;6.50;99.90;;;;;;5019121;28;19913;-79
2023/04/08 07:02:18;;;;;;;;;;;6.50;99.90;;;;;;5017860;28;19963;-77
2023/04/08 07:04:43;;;;;;;;;;;6.60;99.90;;;;;;5016564;28;19963;-78
2023/04/08 07:07:09;;;;;;;;;;;6.60;99.90;;;;;;5017861;28;19909;-79
2023/04/08 07:09:35;;;;;;;;;;;6.70;99.90;;;;;;5020949;28;19945;-79
2023/04/08 07:12:02;;;;;;;;;;;6.80;99.90;;;;;;5020842;28;19956;-79
2023/04/08 07:14:28;;;;;;;;;;;6.90;99.90;;;;;;5018408;28;20365;-79
2023/04/08 07:16:55;;;;;;;;;;;6.80;99.90;;;;;;5017956;28;19909;-78
2023/04/08 07:19:21;;;;;;;;;;;6.90;99.90;;;;;;5019418;28;19916;-77
2023/04/08 07:21:47;;;;;;;;;;;6.90;99.90;;;;;;5019908;28;19990;-77
2023/04/08 07:24:12;;;;;;;;;;;6.90;99.90;;;;;;5019172;28;19951;-78
2023/04/08 07:26:38;;;;;;;;;;;7.00;99.90;;;;;;5018572;28;20372;-78
2023/04/08 07:29:04;;;;;;;;;;;7.00;99.90;;;;;;5017198;28;19964;-80
2023/04/08 07:31:29;;;;;;;;;;;7.30;99.90;;;;;;5020356;28;20003;-83
2023/04/08 07:33:55;;;;;;;;;;;7.40;99.90;;;;;;5019681;28;19909;-82
2023/04/08 07:36:20;;;;;;;;;;;7.50;99.90;;;;;;5019097;28;19909;-82
2023/04/08 07:38:46;;;;;;;;;;;7.60;99.90;;;;;;5040657;28;20288;-82
2023/04/08 07:41:12;;;;;;;;;;;7.70;99.90;;;;;;5023739;28;19913;-80
2023/04/08 07:43:38;;;;;;;;;;;7.70;99.90;;;;;;5039492;28;19914;-82
2023/04/08 07:46:04;;;;;;;;;;;8.20;99.90;;;;;;5038886;28;20320;-80
2023/04/08 07:48:30;;;;;;;;;;;7.90;99.90;;;;;;5021037;28;19948;-79
2023/04/08 07:50:55;;;;;;;;;;;8.30;99.90;;;;;;5020744;28;20280;-79
2023/04/08 07:53:22;;;;;;;;;;;8.00;99.90;;;;;;5020368;28;19909;-81
2023/04/08 07:55:47;;;;;;;;;;;8.00;99.90;;;;;;5022058;28;20061;-79
2023/04/08 07:58:13;;;;;;;;;;;8.70;99.90;;;;;;5022391;28;19909;-80
2023/04/08 08:00:39;;;;;;;;;;;10.70;99.90;;;;;;5022395;28;19917;-79
2023/04/08 08:03:05;;;;;;;;;;;8.20;99.90;;;;;;5043816;28;19937;-80
2023/04/08 08:05:30;;;;;;;;;;;8.30;99.90;;;;;;5025617;28;19956;-82
2023/04/08 08:07:56;;;;;;;;;;;9.10;99.90;;;;;;5020880;28;19913;-80
2023/04/08 08:10:21;;;;;;;;;;;8.50;99.90;;;;;;5026595;28;20361;-81
2023/04/08 08:12:47;;;;;;;;;;;11.30;99.90;;;;;;5048217;28;19917;-81
2023/04/08 08:15:13;;;;;;;;;;;8.80;99.90;;;;;;5029024;28;20388;-80
2023/04/08 08:17:39;;;;;;;;;;;9.00;99.90;;;;;;5029842;28;20395;-80
2023/04/08 08:20:05;;;;;;;;;;;9.10;99.90;;;;;;5027472;28;19909;-81
2023/04/08 08:22:30;;;;;;;;;;;9.20;99.90;;;;;;5029037;28;20331;-81
2023/04/08 08:24:56;;;;;;;;;;;9.90;99.90;;;;;;5026309;28;19909;-82
2023/04/08 08:27:22;;;;;;;;;;;10.80;99.90;;;;;;5025673;28;20367;-81
2023/04/08 08:29:47;;;;;;;;;;;9.40;99.90;;;;;;5043056;28;19914;-78
2023/04/08 08:32:13;;;;;;;;;;;9.50;99.90;;;;;;5037960;28;20039;-78
2023/04/08 08:34:38;;;;;;;;;;;9.60;99.90;;;;;;5037839;28;19909;-73
2023/04/08 08:37:04;;;;;;;;;;;9.80;99.90;;;;;;5019206;28;20046;-78
2023/04/08 08:39:29;;;;;;;;;;;9.90;99.90;;;;;;5019017;28;19909;-79
2023/04/08 08:41:55;;;;;;;;;;;10.10;99.90;;;;;;5019342;28;19976;-78
2023/04/08 08:44:21;;;;;;;;;;;10.20;99.90;;;;;;5036694;28;19915;-77
2023/04/08 08:46:47;;;;;;;;;;;10.30;99.90;;;;;;5018503;28;19909;-76
2023/04/08 08:49:12;;;;;;;;;;;10.40;99.90;;;;;;5036310;28;19913;-76
2023/04/08 08:51:44;;;;;;;;;;;10.50;99.90;;;;;;5036454;28;19980;-75
2023/04/08 08:54:10;;;;;;;;;;;10.70;99.90;;;;;;5036368;28;19913;-76
2023/04/08 08:56:35;;;;;;;;;;;10.80;99.90;;;;;;5018785;28;20378;-76
2023/04/08 08:59:01;;;;;;;;;;;10.90;99.90;;;;;;5018394;28;19959;-76
2023/04/08 09:01:36;;;;;;;;;;;11.00;99.90;;;;;;5017457;28;19909;-77
2023/04/08 09:04:08;;;;;;;;;;;11.10;99.90;;;;;;5019141;28;20368;-76
2023/04/08 09:06:34;;;;;;;;;;;11.20;99.90;;;;;;5018243;28;19909;-76
2023/04/08 09:09:01;;;;;;;;;;;11.30;99.90;;;;;;5019016;28;20337;-77
2023/04/08 09:11:27;;;;;;;;;;;11.70;99.90;;;;;;5036256;28;19932;-77
2023/04/08 09:13:52;;;;;;;;;;;11.40;99.90;;;;;;5036065;28;20364;-77
2023/04/08 09:16:18;;;;;;;;;;;11.50;99.90;;;;;;5036198;28;19952;-76
2023/04/08 09:18:45;;;;;;;;;;;11.60;99.90;;;;;;5018131;28;19909;-77
2023/04/08 09:21:15;;;;;;;;;;;11.70;99.90;;;;;;5035702;28;20373;-77
2023/04/08 09:23:45;;;;;;;;;;;12.50;99.90;;;;;;5018161;28;19976;-77
2023/04/08 09:26:15;;;;;;;;;;;11.80;99.90;;;;;;5018064;28;19909;-77
2023/04/08 09:28:41;;;;;;;;;;;12.40;99.90;;;;;;5035838;28;20261;-77
2023/04/08 09:31:23;;;;;;;;;;;12.00;99.90;;;;;;5018102;28;19964;-76
2023/04/08 09:33:53;;;;;;;;;;;12.10;99.90;;;;;;5018082;28;19909;-77
2023/04/08 09:36:19;;;;;;;;;;;12.20;99.90;;;;;;5018613;28;20257;-77
2023/04/08 09:38:45;;;;;;;;;;;12.30;99.90;;;;;;5017786;28;19960;-76
2023/04/08 09:41:15;;;;;;;;;;;12.40;99.90;;;;;;5035377;28;19921;-78
2023/04/08 09:43:48;;;;;;;;;;;12.40;99.90;;;;;;5035985;28;19909;-78
2023/04/08 09:46:15;;;;;;;;;;;12.50;99.90;;;;;;5017589;28;19910;-78
2023/04/08 09:49:01;;;;;;;;;;;12.60;99.90;;;;;;5018158;28;19913;-77
2023/04/08 09:51:32;;;;;;;;;;;12.70;99.90;;;;;;5021126;28;19909;-78
2023/04/08 09:54:01;;;;;;;;;;;12.80;99.90;;;;;;5036114;28;19909;-78
2023/04/08 09:56:33;;;;;;;;;;;12.90;99.90;;;;;;5035673;28;19909;-78
2023/04/08 09:59:01;;;;;;;;;;;13.20;99.90;;;;;;5036070;28;19917;-78
2023/04/08 10:01:43;;;;;;;;;;;13.10;99.90;;;;;;5035726;28;19909;-78
2023/04/08 10:04:12;;;;;;;;;;;13.10;99.90;;;;;;5017514;28;19917;-78
2023/04/08 10:06:38;;;;;;;;;;;13.30;99.90;;;;;;5017565;28;20273;-78
2023/04/08 10:09:04;;;;;;;;;;;13.40;99.90;;;;;;5017239;28;19928;-78
2023/04/08 10:11:30;;;;;;;;;;;13.40;99.90;;;;;;5017157;28;20384;-78
2023/04/08 10:13:55;;;;;;;;;;;13.50;99.90;;;;;;5035000;28;19921;-78
2023/04/08 10:16:23;;;;;;;;;;;13.60;99.90;;;;;;5017270;28;19931;-77
2023/04/08 10:18:51;;;;;;;;;;;13.60;99.90;;;;;;5035151;28;19916;-77
2023/04/08 10:21:36;;;;;;;;;;;13.80;99.90;;;;;;5017215;28;20277;-77
2023/04/08 10:24:05;;;;;;;;;;;13.80;99.90;;;;;;5017022;28;20284;-78
2023/04/08 10:26:32;;;;;;;;;;;13.90;99.90;;;;;;5017192;28;20395;-78
2023/04/08 10:29:21;;;;;;;;;;;13.90;99.90;;;;;;5034728;28;19961;-78
2023/04/08 10:31:47;;;;;;;;;;;14.00;99.90;;;;;;5024199;28;19909;-78
2023/04/08 10:34:16;;;;;;;;;;;14.10;99.90;;;;;;5034390;28;19913;-78
2023/04/08 10:36:43;;;;;;;;;;;14.20;99.90;;;;;;5035078;28;20392;-78
2023/04/08 10:39:08;;;;;;;;;;;14.30;99.90;;;;;;5016995;28;19910;-78
2023/04/08 10:41:34;;;;;;;;;;;14.40;99.90;;;;;;5034507;28;19916;-78
2023/04/08 10:44:03;;;;;;;;;;;14.40;99.90;;;;;;5016759;28;19932;-78
2023/04/08 10:46:36;;;;;;;;;;;14.60;99.90;;;;;;5016799;28;19958;-78
2023/04/08 10:49:02;;;;;;;;;;;14.70;99.90;;;;;;5034309;28;19967;-78
2023/04/08 10:51:31;;;;;;;;;;;14.80;99.90;;;;;;5016710;28;19909;-78
2023/04/08 10:54:04;;;;;;;;;;;14.90;99.90;;;;;;5016573;28;19909;-78
2023/04/08 10:56:30;;;;;;;;;;;15.00;99.90;;;;;;5034244;28;19941;-78
2023/04/08 10:58:55;;;;;;;;;;;15.00;99.10;;;;;;5034183;28;19909;-79
2023/04/08 11:01:21;;;;;;;;;;;15.00;99.90;;;;;;5033991;28;20049;-78
2023/04/08 11:03:47;;;;;;;;;;;15.10;99.90;;;;;;5034160;28;19952;-78
2023/04/08 11:06:12;;;;;;;;;;;15.20;97.80;;;;;;5034024;28;19913;-78
2023/04/08 11:08:38;;;;;;;;;;;15.40;97.30;;;;;;5033875;28;19963;-78
2023/04/08 11:11:07;;;;;;;;;;;15.60;96.60;;;;;;5016312;28;19956;-78
2023/04/08 11:13:33;;;;;;;;;;;15.60;95.60;;;;;;5033893;28;20335;-78
2023/04/08 11:15:59;;;;;;;;;;;15.70;94.10;;;;;;5034233;28;19913;-78
2023/04/08 11:18:25;;;;;;;;;;;15.80;94.90;;;;;;5016240;28;19909;-78
2023/04/08 11:20:51;;;;;;;;;;;16.00;97.10;;;;;;5034155;28;19963;-78
2023/04/08 11:23:17;;;;;;;;;;;16.10;95.10;;;;;;5034088;28;20376;-78
2023/04/08 11:25:44;;;;;;;;;;;16.00;94.90;;;;;;5016318;28;19942;-78
2023/04/08 11:28:13;;;;;;;;;;;16.10;95.80;;;;;;5033818;28;20292;-78
2023/04/08 11:30:39;;;;;;;;;;;16.30;97.30;;;;;;5034081;28;19988;-78
2023/04/08 11:33:06;;;;;;;;;;;16.40;96.50;;;;;;5016766;28;20055;-78
2023/04/08 11:35:32;;;;;;;;;;;16.50;95.10;;;;;;5016538;28;20152;-78
2023/04/08 11:37:57;;;;;;;;;;;16.70;94.80;;;;;;5016284;28;20329;-78
2023/04/08 11:40:23;;;;;;;;;;;16.90;95.30;;;;;;5016227;28;19916;-78
2023/04/08 11:42:49;;;;;;;;;;;17.00;90.70;;;;;;5016212;28;19996;-78
2023/04/08 11:45:15;;;;;;;;;;;17.00;90.50;;;;;;5035232;28;19909;-78
2023/04/08 11:47:41;;;;;;;;;;;17.00;92.50;;;;;;5037731;28;20003;-78
2023/04/08 11:50:07;;;;;;;;;;;17.00;92.00;;;;;;5037732;28;19915;-78
2023/04/08 11:52:46;;;;;;;;;;;16.90;88.70;;;;;;5037658;28;20368;-78
2023/04/08 11:55:20;;;;;;;;;;;17.10;91.30;;;;;;5020241;28;19909;-78
2023/04/08 11:57:47;;;;;;;;;;;17.20;90.80;;;;;;5019665;28;19909;-78
2023/04/08 12:00:12;;;;;;;;;;;17.50;91.50;;;;;;5020088;28;20036;-78
2023/04/08 12:02:38;;;;;;;;;;;17.50;82.30;;;;;;5019561;28;20368;-78
2023/04/08 12:05:04;;;;;;;;;;;17.60;81.90;;;;;;5019661;28;19909;-78
2023/04/08 12:07:29;;;;;;;;;;;17.70;80.20;;;;;;5019384;28;20007;-78
2023/04/08 12:09:55;;;;;;;;;;;17.90;80.20;;;;;;5019419;28;19920;-78
2023/04/08 12:12:20;;;;;;;;;;;18.10;80.40;;;;;;5019513;28;19909;-78
2023/04/08 12:14:46;;;;;;;;;;;18.20;75.40;;;;;;5037291;28;20269;-78
2023/04/08 12:17:11;;;;;;;;;;;18.00;71.00;;;;;;5019623;28;20269;-78
2023/04/08 12:19:37;;;;;;;;;;;17.80;72.50;;;;;;5037002;28;19913;-78
2023/04/08 12:22:02;;;;;;;;;;;17.60;68.90;;;;;;5037221;28;19909;-78
2023/04/08 12:24:28;;;;;;;;;;;17.40;72.00;;;;;;5019126;28;19909;-78
2023/04/08 12:26:53;;;;;;;;;;;17.40;76.60;;;;;;5036976;28;20287;-78
2023/04/08 12:29:19;;;;;;;;;;;17.50;75.90;;;;;;5036851;28;19913;-78
2023/04/08 12:31:44;;;;;;;;;;;17.80;76.20;;;;;;5019202;28;20261;-78
2023/04/08 12:34:10;;;;;;;;;;;18.10;77.40;;;;;;5018984;28;19963;-78
2023/04/08 12:36:36;;;;;;;;;;;18.40;80.20;;;;;;5036841;28;19909;-78
2023/04/08 12:39:02;;;;;;;;;;;18.50;72.20;;;;;;5037006;28;19970;-78
2023/04/08 12:41:27;;;;;;;;;;;18.50;76.80;;;;;;5018951;28;19909;-78
2023/04/08 12:43:53;;;;;;;;;;;18.60;75.80;;;;;;5019461;28;20283;-78
2023/04/08 12:46:18;;;;;;;;;;;18.50;68.90;;;;;;5018778;28;19963;-79
2023/04/08 12:48:44;;;;;;;;;;;18.30;67.90;;;;;;5036448;28;20322;-78
2023/04/08 12:51:10;;;;;;;;;;;18.20;72.30;;;;;;5036440;28;19913;-78
2023/04/08 12:53:36;;;;;;;;;;;18.20;71.80;;;;;;5036510;28;19964;-78
2023/04/08 12:56:01;;;;;;;;;;;18.30;74.00;;;;;;5018784;28;20387;-79
2023/04/08 12:58:27;;;;;;;;;;;18.40;68.70;;;;;;5036676;28;19909;-78
2023/04/08 13:00:52;;;;;;;;;;;18.30;66.20;;;;;;5018423;28;19956;-78
2023/04/08 13:03:18;;;;;;;;;;;18.30;69.80;;;;;;5036488;28;19909;-78
2023/04/08 13:05:43;;;;;;;;;;;18.50;69.80;;;;;;5036344;28;19909;-78
2023/04/08 13:08:10;;;;;;;;;;;18.60;71.30;;;;;;5036130;28;19913;-78
2023/04/08 13:10:36;;;;;;;;;;;18.80;70.80;;;;;;5017669;28;20372;-78
2023/04/08 13:13:01;;;;;;;;;;;18.90;71.50;;;;;;5035149;28;20047;-78
2023/04/08 13:15:27;;;;;;;;;;;19.00;66.40;;;;;;5036962;28;19913;-78
2023/04/08 13:17:53;;;;;;;;;;;18.80;66.90;;;;;;5018206;28;19968;-78
2023/04/08 13:20:18;;;;;;;;;;;18.80;69.20;;;;;;5017901;28;19913;-78
2023/04/08 13:22:44;;;;;;;;;;;18.80;72.20;;;;;;5036295;28;19948;-78
2023/04/08 13:25:09;;;;;;;;;;;18.90;70.60;;;;;;5036239;28;19909;-78
2023/04/08 13:27:35;;;;;;;;;;;18.90;67.10;;;;;;5018436;28;19909;-78
2023/04/08 13:30:00;;;;;;;;;;;18.70;67.20;;;;;;5018353;28;19913;-78
2023/04/08 13:32:26;;;;;;;;;;;18.60;69.00;;;;;;5035805;28;19917;-78
2023/04/08 13:34:51;;;;;;;;;;;18.60;68.00;;;;;;5036191;28;20442;-78
2023/04/08 13:37:16;;;;;;;;;;;18.30;71.30;;;;;;5036052;28;19910;-78
2023/04/08 13:39:42;;;;;;;;;;;18.40;73.60;;;;;;5018446;28;19920;-78
2023/04/08 13:42:07;;;;;;;;;;;18.70;74.20;;;;;;5036020;28;20386;-78
2023/04/08 13:44:33;;;;;;;;;;;19.30;71.90;;;;;;5036057;28;19909;-78
2023/04/08 13:46:58;;;;;;;;;;;20.00;72.50;;;;;;5036295;28;19916;-78
2023/04/08 13:49:24;;;;;;;;;;;20.60;73.00;;;;;;5018946;28;19920;-79
2023/04/08 13:51:50;;;;;;;;;;;21.10;71.00;;;;;;5019106;28;19952;-79
2023/04/08 13:54:15;;;;;;;;;;;21.40;66.70;;;;;;5037283;28;19916;-79
2023/04/08 13:56:41;;;;;;;;;;;21.30;66.90;;;;;;5018783;28;19909;-79
2023/04/08 13:59:06;;;;;;;;;;;21.10;67.20;;;;;;5037448;28;19910;-79
2023/04/08 14:01:32;;;;;;;;;;;20.90;66.60;;;;;;5036832;28;20360;-79
2023/04/08 14:03:57;;;;;;;;;;;20.90;69.00;;;;;;5036624;28;19913;-79
2023/04/08 14:06:23;;;;;;;;;;;20.80;67.60;;;;;;5036937;28;19916;-79
2023/04/08 14:08:48;;;;;;;;;;;20.90;66.50;;;;;;5036987;28;19920;-79
2023/04/08 14:11:14;;;;;;;;;;;21.20;69.30;;;;;;5019835;28;19913;-79
2023/04/08 14:13:40;;;;;;;;;;;21.30;66.40;;;;;;5037480;28;19917;-79
2023/04/08 14:16:05;;;;;;;;;;;21.40;66.90;;;;;;5019580;28;19915;-79
2023/04/08 14:18:31;;;;;;;;;;;21.40;66.40;;;;;;5037607;28;19936;-79